createdAt,value
2022-08-29T00:00:59.576Z,50.866737
2022-08-29T00:01:59.555Z,50.866798
2022-08-29T00:02:59.513Z,50.866817
2022-08-29T00:03:59.549Z,50.866863
2022-08-29T00:04:59.500Z,50.866825
2022-08-29T00:05:59.494Z,50.866810
2022-08-29T00:07:00.137Z,50.866817
2022-08-29T00:07:59.470Z,50.866856
2022-08-29T00:08:59.472Z,50.866875
2022-08-29T00:09:59.461Z,50.866901
2022-08-29T00:10:59.448Z,50.866905
2022-08-29T00:11:59.445Z,50.866875
2022-08-29T00:12:59.431Z,50.866844
2022-08-29T00:13:59.432Z,50.866806
2022-08-29T00:14:59.419Z,50.866772
2022-08-29T00:15:59.409Z,50.866726
2022-08-29T00:16:59.462Z,50.866768
2022-08-29T00:17:59.387Z,50.866806
2022-08-29T00:19:00.390Z,50.866810
2022-08-29T00:19:59.393Z,50.866795
2022-08-29T00:20:59.372Z,50.866779
2022-08-29T00:21:59.381Z,50.866795
2022-08-29T00:22:59.362Z,50.866802
2022-08-29T00:23:59.343Z,50.866783
2022-08-29T00:24:59.329Z,50.866795
2022-08-29T00:26:00.327Z,50.866821
2022-08-29T00:26:59.320Z,50.866768
2022-08-29T00:27:59.321Z,50.866859
2022-08-29T00:28:59.311Z,50.866833
2022-08-29T00:29:59.305Z,50.866749
2022-08-29T00:53:00.892Z,50.867050
2022-08-29T00:54:00.880Z,50.866764
2022-08-29T00:55:00.874Z,50.866684
2022-08-29T00:56:00.868Z,50.866684
2022-08-29T00:57:00.849Z,50.866318
2022-08-29T00:58:00.869Z,50.866142
2022-08-29T00:59:00.841Z,50.866165
2022-08-29T01:00:00.833Z,50.866291
2022-08-29T01:01:00.869Z,50.866089
2022-08-29T01:02:00.881Z,50.866356
2022-08-29T01:03:00.811Z,50.866356
2022-08-29T01:04:00.800Z,50.866356
2022-08-29T01:05:00.786Z,50.866356
2022-08-29T01:06:00.778Z,50.866356
2022-08-29T01:07:00.770Z,50.866356
2022-08-29T01:08:00.778Z,50.866356
2022-08-29T01:09:00.767Z,50.866356
2022-08-29T01:10:00.744Z,50.866356
2022-08-29T01:11:01.740Z,50.866356
2022-08-29T01:12:00.731Z,50.866467
2022-08-29T01:13:00.737Z,50.866543
2022-08-29T01:14:00.715Z,50.866978
2022-08-29T01:15:00.718Z,50.867176
2022-08-29T01:16:00.750Z,50.867233
2022-08-29T01:17:00.687Z,50.867222
2022-08-29T01:18:00.689Z,50.866859
2022-08-29T01:19:00.670Z,50.866776
2022-08-29T01:20:00.680Z,50.866600
2022-08-29T01:21:00.656Z,50.866680
2022-08-29T01:22:00.656Z,50.866520
2022-08-29T01:23:00.642Z,50.866749
2022-08-29T01:24:00.648Z,50.866810
2022-08-29T01:25:00.623Z,50.866787
2022-08-29T01:26:00.610Z,50.866779
2022-08-29T01:27:00.610Z,50.866776
2022-08-29T01:28:00.604Z,50.866814
2022-08-29T01:29:00.589Z,50.866787
2022-08-29T01:30:01.577Z,50.866779
2022-08-29T01:31:00.586Z,50.866734
2022-08-29T01:32:00.603Z,50.866764
2022-08-29T01:33:00.562Z,50.866722
2022-08-29T01:34:00.554Z,50.866726
2022-08-29T01:35:00.540Z,50.866802
2022-08-29T01:36:00.532Z,50.866711
2022-08-29T01:37:00.530Z,50.866821
2022-08-29T01:38:00.515Z,50.866745
2022-08-29T01:39:01.417Z,50.866810
2022-08-29T01:40:01.494Z,50.866856
2022-08-29T01:41:00.529Z,50.866829
2022-08-29T01:42:00.492Z,50.866817
2022-08-29T01:43:00.478Z,50.866837
2022-08-29T01:44:00.487Z,50.866844
2022-08-29T01:45:00.464Z,50.866825
2022-08-29T01:46:00.512Z,50.866844
2022-08-29T01:47:03.015Z,50.866814
2022-08-29T01:48:03.548Z,50.866787
2022-08-29T01:49:01.446Z,50.866768
2022-08-29T01:50:00.428Z,50.866776
2022-08-29T01:51:00.425Z,50.866802
2022-08-29T01:52:00.410Z,50.866764
2022-08-29T01:53:00.426Z,50.866833
2022-08-29T01:54:00.383Z,50.866875
2022-08-29T01:55:00.374Z,50.866882
2022-08-29T01:56:00.375Z,50.866833
2022-08-29T01:57:00.357Z,50.866810
2022-08-29T01:58:00.358Z,50.866756
2022-08-29T01:59:00.357Z,50.866776
2022-08-29T02:00:00.340Z,50.866821
2022-08-29T02:01:00.364Z,50.866795
2022-08-29T02:02:00.373Z,50.866714
2022-08-29T02:03:00.311Z,50.866768
2022-08-29T02:04:00.297Z,50.866817
2022-08-29T02:05:00.293Z,50.866852
2022-08-29T02:06:00.279Z,50.866829
2022-08-29T02:07:00.269Z,50.866791
2022-08-29T02:08:00.265Z,50.866814
2022-08-29T02:09:00.246Z,50.866791
2022-08-29T02:10:01.260Z,50.866776
2022-08-29T02:11:00.254Z,50.866730
2022-08-29T02:12:00.238Z,50.866749
2022-08-29T02:13:00.239Z,50.866737
2022-08-29T02:14:00.216Z,50.866730
2022-08-29T02:15:00.220Z,50.866734
2022-08-29T02:16:00.256Z,50.866734
2022-08-29T02:17:01.211Z,50.866722
2022-08-29T02:18:00.192Z,50.866745
2022-08-29T02:19:00.177Z,50.866787
2022-08-29T02:20:00.205Z,50.866795
2022-08-29T02:21:00.164Z,50.866737
2022-08-29T02:22:00.165Z,50.866734
2022-08-29T02:23:00.149Z,50.866741
2022-08-29T02:24:11.256Z,50.866714
2022-08-29T02:25:01.123Z,50.866817
2022-08-29T02:26:00.931Z,50.866802
2022-08-29T02:27:00.123Z,50.866776
2022-08-29T02:28:00.103Z,50.866764
2022-08-29T02:29:00.101Z,50.866783
2022-08-29T02:30:01.093Z,50.866817
2022-08-29T02:31:00.107Z,50.866852
2022-08-29T02:32:00.920Z,50.866787
2022-08-29T02:33:00.077Z,50.866802
2022-08-29T02:34:00.058Z,50.866795
2022-08-29T02:35:00.083Z,50.866772
2022-08-29T02:36:00.055Z,50.866749
2022-08-29T02:37:00.037Z,50.866753
2022-08-29T02:38:00.033Z,50.866741
2022-08-29T02:39:00.018Z,50.866734
2022-08-29T02:40:00.048Z,50.866730
2022-08-29T02:41:00.007Z,50.866779
2022-08-29T02:42:00.007Z,50.866833
2022-08-29T02:42:59.997Z,50.866779
2022-08-29T02:43:59.972Z,50.866833
2022-08-29T02:44:59.969Z,50.866806
2022-08-29T02:45:59.957Z,50.866810
2022-08-29T02:47:00.031Z,50.866821
2022-08-29T02:47:59.940Z,50.866814
2022-08-29T02:49:01.314Z,50.866734
2022-08-29T02:49:59.981Z,50.866730
2022-08-29T02:50:59.915Z,50.866814
2022-08-29T02:51:59.934Z,50.866848
2022-08-29T02:52:59.915Z,50.866810
2022-08-29T02:53:59.892Z,50.866802
2022-08-29T02:54:59.909Z,50.866802
2022-08-29T02:55:59.873Z,50.866726
2022-08-29T02:56:59.866Z,50.866909
2022-08-29T02:57:59.866Z,50.866833
2022-08-29T02:58:59.887Z,50.866795
2022-08-29T02:59:59.857Z,50.866730
2022-08-29T03:00:59.920Z,50.866730
2022-08-29T03:01:59.921Z,50.866753
2022-08-29T03:02:59.833Z,50.866776
2022-08-29T03:03:59.855Z,50.866814
2022-08-29T03:04:59.800Z,50.866829
2022-08-29T03:05:59.809Z,50.866753
2022-08-29T03:06:59.806Z,50.866791
2022-08-29T03:07:59.778Z,50.866707
2022-08-29T03:08:59.785Z,50.866657
2022-08-29T03:09:59.758Z,50.866711
2022-08-29T03:10:59.766Z,50.866817
2022-08-29T03:11:59.743Z,50.866810
2022-08-29T03:12:59.738Z,50.866760
2022-08-29T03:13:59.734Z,50.866707
2022-08-29T03:14:59.721Z,50.866657
2022-08-29T03:15:59.799Z,50.866703
2022-08-29T03:16:59.703Z,50.866714
2022-08-29T03:17:59.702Z,50.866714
2022-08-29T03:19:00.434Z,50.866768
2022-08-29T03:19:59.685Z,50.866737
2022-08-29T03:20:59.684Z,50.866783
2022-08-29T03:21:59.675Z,50.866840
2022-08-29T03:22:59.664Z,50.866848
2022-08-29T03:23:59.652Z,50.866825
2022-08-29T03:24:59.641Z,50.866825
2022-08-29T03:25:59.636Z,50.866764
2022-08-29T03:26:59.626Z,50.866795
2022-08-29T03:27:59.644Z,50.866795
2022-08-29T03:28:59.616Z,50.866734
2022-08-29T03:29:59.603Z,50.866741
2022-08-29T03:30:59.673Z,50.866772
2022-08-29T03:32:00.440Z,50.866783
2022-08-29T03:32:59.591Z,50.866737
2022-08-29T03:33:59.573Z,50.866650
2022-08-29T03:34:59.563Z,50.866508
2022-08-29T03:35:59.549Z,50.866608
2022-08-29T03:36:59.576Z,50.866772
2022-08-29T03:37:59.539Z,50.866734
2022-08-29T03:38:59.521Z,50.866661
2022-08-29T03:39:59.572Z,50.866398
2022-08-29T03:40:59.520Z,50.866627
2022-08-29T03:41:59.500Z,50.866833
2022-08-29T03:42:59.493Z,50.866859
2022-08-29T03:43:59.480Z,50.866962
2022-08-29T03:44:59.533Z,50.866783
2022-08-29T03:45:59.464Z,50.866917
2022-08-29T03:46:59.542Z,50.866920
2022-08-29T03:47:59.449Z,50.867065
2022-08-29T03:48:59.444Z,50.867115
2022-08-29T03:49:59.441Z,50.866882
2022-08-29T03:50:59.421Z,50.866798
2022-08-29T03:51:59.419Z,50.866718
2022-08-29T03:52:59.453Z,50.866634
2022-08-29T03:53:59.406Z,50.866741
2022-08-29T03:54:59.405Z,50.866863
2022-08-29T03:55:59.390Z,50.866859
2022-08-29T03:56:59.374Z,50.866795
2022-08-29T03:57:59.376Z,50.867016
2022-08-29T03:58:59.368Z,50.866901
2022-08-29T03:59:59.373Z,50.867031
2022-08-29T04:00:59.367Z,50.866997
2022-08-29T04:01:59.372Z,50.866932
2022-08-29T04:02:59.391Z,50.866920
2022-08-29T04:03:59.320Z,50.866932
2022-08-29T04:04:59.323Z,50.866837
2022-08-29T04:05:59.306Z,50.866798
2022-08-29T04:06:59.303Z,50.866726
2022-08-29T04:07:59.293Z,50.866856
2022-08-29T04:08:59.290Z,50.866974
2022-08-29T04:09:59.283Z,50.867210
2022-08-29T04:10:59.271Z,50.867252
2022-08-29T04:11:59.277Z,50.867447
2022-08-29T04:12:59.263Z,50.867355
2022-08-29T04:13:59.872Z,50.867424
2022-08-29T04:14:59.234Z,50.867393
2022-08-29T04:15:59.256Z,50.867229
2022-08-29T04:16:59.978Z,50.867104
2022-08-29T04:17:59.208Z,50.866920
2022-08-29T04:18:59.477Z,50.866947
2022-08-29T04:42:06.385Z,50.866653
2022-08-29T04:43:06.387Z,50.867119
2022-08-29T04:44:06.375Z,50.867119
2022-08-29T04:45:06.546Z,50.866844
2022-08-29T04:46:07.873Z,50.866825
2022-08-29T04:47:07.351Z,50.866833
2022-08-29T04:48:06.349Z,50.866806
2022-08-29T04:49:06.354Z,50.866795
2022-08-29T04:50:06.326Z,50.866806
2022-08-29T04:51:06.321Z,50.866798
2022-08-29T04:52:06.318Z,50.866829
2022-08-29T04:53:06.314Z,50.866829
2022-08-29T04:54:06.308Z,50.866783
2022-08-29T04:55:06.281Z,50.866779
2022-08-29T04:56:06.296Z,50.866745
2022-08-29T04:57:06.268Z,50.866768
2022-08-29T04:58:06.275Z,50.866779
2022-08-29T04:59:06.253Z,50.866795
2022-08-29T05:00:06.256Z,50.866844
2022-08-29T05:01:06.243Z,50.866924
2022-08-29T05:02:06.288Z,50.866879
2022-08-29T05:03:06.297Z,50.866901
2022-08-29T05:04:06.221Z,50.866890
2022-08-29T05:05:06.910Z,50.866920
2022-08-29T05:06:06.210Z,50.866879
2022-08-29T05:07:06.203Z,50.866802
2022-08-29T05:08:06.203Z,50.866795
2022-08-29T05:09:06.168Z,50.866829
2022-08-29T05:10:06.161Z,50.866863
2022-08-29T05:11:06.149Z,50.866821
2022-08-29T05:12:10.144Z,50.866749
2022-08-29T05:13:07.154Z,50.866772
2022-08-29T05:14:06.131Z,50.866772
2022-08-29T05:15:06.120Z,50.866791
2022-08-29T05:16:06.191Z,50.866753
2022-08-29T05:17:06.106Z,50.866699
2022-08-29T05:18:06.088Z,50.866749
2022-08-29T05:19:06.093Z,50.866791
2022-08-29T05:20:06.074Z,50.866825
2022-08-29T05:21:06.066Z,50.866795
2022-08-29T05:22:06.058Z,50.866825
2022-08-29T05:23:06.054Z,50.866844
2022-08-29T05:24:06.041Z,50.866764
2022-08-29T05:25:06.027Z,50.866695
2022-08-29T05:26:06.033Z,50.866760
2022-08-29T05:27:06.041Z,50.866749
2022-08-29T05:28:06.063Z,50.866760
2022-08-29T05:29:08.390Z,50.866745
2022-08-29T05:30:05.993Z,50.866772
2022-08-29T05:31:06.027Z,50.866764
2022-08-29T05:32:05.985Z,50.866840
2022-08-29T05:33:05.975Z,50.866798
2022-08-29T05:34:21.906Z,50.866737
2022-08-29T05:35:06.948Z,50.866676
2022-08-29T05:36:05.945Z,50.866676
2022-08-29T05:37:05.937Z,50.866688
2022-08-29T05:38:09.028Z,50.866688
2022-08-29T05:39:06.927Z,50.866722
2022-08-29T05:40:05.972Z,50.866756
2022-08-29T05:41:05.910Z,50.866756
2022-08-29T05:42:05.904Z,50.866768
2022-08-29T05:43:05.891Z,50.866756
2022-08-29T05:44:05.887Z,50.866821
2022-08-29T05:45:05.889Z,50.866783
2022-08-29T05:46:05.905Z,50.866829
2022-08-29T05:47:05.852Z,50.866928
2022-08-29T05:48:06.850Z,50.866879
2022-08-29T05:49:05.845Z,50.866806
2022-08-29T05:50:05.844Z,50.866768
2022-08-29T05:51:05.817Z,50.866768
2022-08-29T05:52:05.817Z,50.866779
2022-08-29T05:53:05.803Z,50.866734
2022-08-29T05:54:05.794Z,50.866688
2022-08-29T05:55:05.791Z,50.866711
2022-08-29T05:56:05.775Z,50.866741
2022-08-29T05:57:05.809Z,50.866726
2022-08-29T05:58:05.772Z,50.866741
2022-08-29T05:59:05.764Z,50.866753
2022-08-29T06:00:05.742Z,50.866760
2022-08-29T06:01:05.730Z,50.866848
2022-08-29T06:02:05.730Z,50.866791
2022-08-29T06:03:05.856Z,50.866802
2022-08-29T06:04:05.842Z,50.866772
2022-08-29T06:05:05.704Z,50.866821
2022-08-29T06:06:05.697Z,50.866848
2022-08-29T06:07:05.705Z,50.866817
2022-08-29T06:08:05.675Z,50.866924
2022-08-29T06:09:05.678Z,50.866882
2022-08-29T06:10:05.655Z,50.866791
2022-08-29T06:11:06.741Z,50.866901
2022-08-29T06:12:05.659Z,50.866852
2022-08-29T06:13:06.565Z,50.866791
2022-08-29T06:14:05.630Z,50.866844
2022-08-29T06:15:05.630Z,50.866898
2022-08-29T06:16:05.708Z,50.867027
2022-08-29T06:17:05.615Z,50.866955
2022-08-29T06:18:05.620Z,50.867012
2022-08-29T06:19:05.584Z,50.867062
2022-08-29T06:20:05.591Z,50.867130
2022-08-29T06:21:05.576Z,50.867439
2022-08-29T06:22:09.608Z,50.866886
2022-08-29T06:23:05.557Z,50.866661
2022-08-29T06:24:05.555Z,50.866543
2022-08-29T06:25:28.065Z,50.866253
2022-08-29T06:26:07.541Z,50.866646
2022-08-29T06:27:05.524Z,50.866688
2022-08-29T06:28:05.524Z,50.866642
2022-08-29T06:29:05.510Z,50.866653
2022-08-29T06:30:05.497Z,50.866634
2022-08-29T06:31:05.575Z,50.866596
2022-08-29T06:32:05.479Z,50.866577
2022-08-29T06:33:05.490Z,50.866543
2022-08-29T06:34:05.505Z,50.866600
2022-08-29T06:35:05.585Z,50.866611
2022-08-29T06:36:05.545Z,50.866734
2022-08-29T06:37:05.474Z,50.866791
2022-08-29T06:38:05.445Z,50.866707
2022-08-29T06:39:05.454Z,50.866608
2022-08-29T06:40:07.422Z,50.866638
2022-08-29T06:41:05.422Z,50.866669
2022-08-29T06:42:05.412Z,50.866539
2022-08-29T06:43:05.403Z,50.866570
2022-08-29T06:44:05.399Z,50.866501
2022-08-29T06:45:05.382Z,50.866547
2022-08-29T06:46:05.386Z,50.866528
2022-08-29T06:47:05.374Z,50.866596
2022-08-29T06:48:05.366Z,50.866467
2022-08-29T06:49:05.374Z,50.866550
2022-08-29T06:50:05.348Z,50.866600
2022-08-29T06:51:05.337Z,50.866604
2022-08-29T06:52:05.341Z,50.866661
2022-08-29T06:53:26.472Z,50.866631
2022-08-29T06:54:07.377Z,50.866650
2022-08-29T06:55:05.305Z,50.866585
2022-08-29T06:56:05.443Z,50.866600
2022-08-29T06:57:05.287Z,50.866619
2022-08-29T06:58:05.280Z,50.866718
2022-08-29T06:59:05.285Z,50.866783
2022-08-29T07:00:12.467Z,50.866718
2022-08-29T07:01:06.345Z,50.866642
2022-08-29T07:02:05.950Z,50.866604
2022-08-29T07:03:05.295Z,50.866604
2022-08-29T07:04:05.243Z,50.866653
2022-08-29T07:05:06.245Z,50.866661
2022-08-29T07:06:05.225Z,50.866680
2022-08-29T07:07:05.234Z,50.866631
2022-08-29T07:08:05.219Z,50.866600
2022-08-29T07:09:05.222Z,50.866665
2022-08-29T07:10:05.199Z,50.866631
2022-08-29T07:11:05.185Z,50.866631
2022-08-29T07:12:05.178Z,50.866634
2022-08-29T07:13:05.195Z,50.866638
2022-08-29T07:14:05.171Z,50.866646
2022-08-29T07:15:05.165Z,50.866623
2022-08-29T07:16:05.187Z,50.866627
2022-08-29T07:17:05.144Z,50.866638
2022-08-29T07:18:05.175Z,50.866665
2022-08-29T07:19:05.118Z,50.866646
2022-08-29T07:20:05.111Z,50.866665
2022-08-29T07:21:05.113Z,50.866665
2022-08-29T07:22:05.108Z,50.866688
2022-08-29T07:23:05.087Z,50.866718
2022-08-29T07:24:05.088Z,50.866703
2022-08-29T07:25:05.091Z,50.866730
2022-08-29T07:26:05.063Z,50.866642
2022-08-29T07:27:05.065Z,50.866646
2022-08-29T07:28:05.067Z,50.866650
2022-08-29T07:29:05.060Z,50.866318
2022-08-29T07:30:05.047Z,50.866196
2022-08-29T07:31:05.107Z,50.866230
2022-08-29T07:32:05.027Z,50.866314
2022-08-29T07:33:05.023Z,50.866409
2022-08-29T07:34:05.050Z,50.866886
2022-08-29T07:35:04.994Z,50.866409
2022-08-29T07:36:04.997Z,50.866390
2022-08-29T07:37:05.836Z,50.866520
2022-08-29T07:38:05.993Z,50.866535
2022-08-29T07:39:04.964Z,50.866684
2022-08-29T07:40:04.999Z,50.866684
2022-08-29T07:41:04.963Z,50.866684
2022-08-29T07:42:04.949Z,50.866592
2022-08-29T07:43:04.939Z,50.866608
2022-08-29T07:44:04.928Z,50.866707
2022-08-29T07:45:04.924Z,50.866760
2022-08-29T07:46:05.532Z,50.866718
2022-08-29T07:47:04.904Z,50.866825
2022-08-29T07:48:04.925Z,50.866905
2022-08-29T07:49:05.892Z,50.866875
2022-08-29T07:50:04.893Z,50.866833
2022-08-29T07:51:08.431Z,50.866768
2022-08-29T07:52:06.872Z,50.866714
2022-08-29T07:53:04.871Z,50.866573
2022-08-29T07:54:04.855Z,50.866425
2022-08-29T07:55:04.851Z,50.866390
2022-08-29T07:56:04.831Z,50.866623
2022-08-29T07:57:04.844Z,50.866707
2022-08-29T07:58:04.824Z,50.866875
2022-08-29T07:59:04.811Z,50.866997
2022-08-29T08:00:05.389Z,50.866825
2022-08-29T08:01:04.889Z,50.866760
2022-08-29T08:02:04.869Z,50.866756
2022-08-29T08:03:04.886Z,50.866756
2022-08-29T08:04:04.769Z,50.866695
2022-08-29T08:05:06.916Z,50.866787
2022-08-29T08:06:07.083Z,50.866730
2022-08-29T08:07:04.741Z,50.866688
2022-08-29T08:08:09.025Z,50.866722
2022-08-29T08:09:06.744Z,50.866737
2022-08-29T08:10:04.727Z,50.866718
2022-08-29T08:11:04.721Z,50.866745
2022-08-29T08:12:08.171Z,50.866722
2022-08-29T08:13:05.728Z,50.866760
2022-08-29T08:14:04.700Z,50.866779
2022-08-29T08:15:04.678Z,50.866798
2022-08-29T08:16:04.691Z,50.866871
2022-08-29T08:17:04.688Z,50.866814
2022-08-29T08:18:04.669Z,50.866821
2022-08-29T08:19:04.648Z,50.866768
2022-08-29T08:20:04.638Z,50.866814
2022-08-29T08:21:04.644Z,50.866806
2022-08-29T08:22:04.623Z,50.866848
2022-08-29T08:23:04.675Z,50.866791
2022-08-29T08:24:04.617Z,50.866825
2022-08-29T08:25:04.596Z,50.866791
2022-08-29T08:26:04.593Z,50.866833
2022-08-29T08:27:05.585Z,50.866833
2022-08-29T08:28:04.579Z,50.866768
2022-08-29T08:29:04.592Z,50.866707
2022-08-29T08:30:04.565Z,50.866791
2022-08-29T08:31:06.274Z,50.866833
2022-08-29T08:32:05.542Z,50.866833
2022-08-29T08:33:04.532Z,50.866802
2022-08-29T08:34:04.531Z,50.866840
2022-08-29T08:35:04.520Z,50.866840
2022-08-29T08:36:04.512Z,50.866852
2022-08-29T08:37:04.503Z,50.866840
2022-08-29T08:38:04.494Z,50.866886
2022-08-29T08:39:04.486Z,50.866810
2022-08-29T08:40:05.563Z,50.866776
2022-08-29T08:41:04.989Z,50.866776
2022-08-29T08:42:04.476Z,50.866764
2022-08-29T08:43:04.446Z,50.866776
2022-08-29T08:44:04.447Z,50.866745
2022-08-29T08:45:04.437Z,50.866753
2022-08-29T08:46:04.475Z,50.866783
2022-08-29T08:47:04.435Z,50.866787
2022-08-29T08:48:04.419Z,50.866764
2022-08-29T08:49:04.408Z,50.866802
2022-08-29T08:50:04.389Z,50.866760
2022-08-29T08:51:04.381Z,50.866791
2022-08-29T08:52:04.376Z,50.866714
2022-08-29T08:53:04.389Z,50.866928
2022-08-29T08:54:04.360Z,50.866833
2022-08-29T08:55:04.358Z,50.866745
2022-08-29T08:56:04.343Z,50.866737
2022-08-29T08:57:04.357Z,50.866848
2022-08-29T08:58:04.327Z,50.866764
2022-08-29T08:59:04.315Z,50.866798
2022-08-29T09:00:04.320Z,50.866791
2022-08-29T09:01:04.378Z,50.866806
2022-08-29T09:02:06.753Z,50.866753
2022-08-29T09:03:04.284Z,50.866730
2022-08-29T09:04:04.278Z,50.866783
2022-08-29T09:05:04.266Z,50.866863
2022-08-29T09:06:04.263Z,50.866814
2022-08-29T09:07:04.266Z,50.866852
2022-08-29T09:08:04.244Z,50.866791
2022-08-29T09:09:04.235Z,50.866779
2022-08-29T09:10:04.223Z,50.866756
2022-08-29T09:11:04.220Z,50.866760
2022-08-29T09:12:04.219Z,50.866749
2022-08-29T09:13:04.207Z,50.866791
2022-08-29T09:14:04.192Z,50.866848
2022-08-29T09:15:04.175Z,50.866833
2022-08-29T09:16:04.193Z,50.866871
2022-08-29T09:17:04.163Z,50.866810
2022-08-29T09:18:04.161Z,50.866848
2022-08-29T09:19:04.148Z,50.866859
2022-08-29T09:20:04.136Z,50.866859
2022-08-29T09:21:10.075Z,50.866852
2022-08-29T09:22:05.115Z,50.866825
2022-08-29T09:23:04.118Z,50.866787
2022-08-29T09:24:04.104Z,50.866695
2022-08-29T09:25:04.101Z,50.866745
2022-08-29T09:26:04.097Z,50.866344
2022-08-29T09:27:04.081Z,50.866379
2022-08-29T09:28:04.090Z,50.866772
2022-08-29T09:29:04.069Z,50.866722
2022-08-29T09:30:04.065Z,50.866779
2022-08-29T09:31:04.061Z,50.866726
2022-08-29T09:32:04.103Z,50.866615
2022-08-29T09:33:04.183Z,50.866577
2022-08-29T09:34:04.089Z,50.866726
2022-08-29T09:35:08.794Z,50.866833
2022-08-29T09:36:05.021Z,50.866806
2022-08-29T09:37:04.007Z,50.866764
2022-08-29T09:38:04.001Z,50.866863
2022-08-29T09:39:03.991Z,50.866798
2022-08-29T09:40:04.029Z,50.866932
2022-08-29T09:41:03.981Z,50.866974
2022-08-29T09:42:03.958Z,50.866890
2022-08-29T09:43:03.951Z,50.866863
2022-08-29T09:44:03.949Z,50.866901
2022-08-29T09:45:03.947Z,50.866955
2022-08-29T09:46:04.014Z,50.866920
2022-08-29T09:47:03.931Z,50.866783
2022-08-29T09:48:03.916Z,50.866970
2022-08-29T09:49:03.907Z,50.866882
2022-08-29T09:50:03.918Z,50.866833
2022-08-29T09:51:04.518Z,50.866695
2022-08-29T09:52:03.913Z,50.866730
2022-08-29T09:53:05.754Z,50.866764
2022-08-29T09:54:04.877Z,50.866768
2022-08-29T09:55:03.900Z,50.866756
2022-08-29T09:56:03.845Z,50.866787
2022-08-29T09:57:03.876Z,50.866817
2022-08-29T09:58:03.843Z,50.866817
2022-08-29T09:59:03.829Z,50.866779
2022-08-29T10:00:03.815Z,50.866745
2022-08-29T10:01:04.486Z,50.866779
2022-08-29T10:02:03.881Z,50.866760
2022-08-29T10:03:03.825Z,50.866814
2022-08-29T10:04:03.826Z,50.866730
2022-08-29T10:05:03.781Z,50.866772
2022-08-29T10:06:03.769Z,50.866749
2022-08-29T10:07:03.819Z,50.866798
2022-08-29T10:08:36.956Z,50.866871
2022-08-29T10:09:03.737Z,50.866905
2022-08-29T10:10:04.744Z,50.866940
2022-08-29T10:11:03.727Z,50.866814
2022-08-29T10:12:03.727Z,50.866840
2022-08-29T10:13:03.707Z,50.867039
2022-08-29T10:14:03.709Z,50.866966
2022-08-29T10:15:03.720Z,50.866894
2022-08-29T10:16:03.708Z,50.866913
2022-08-29T10:17:03.737Z,50.866905
2022-08-29T10:18:03.669Z,50.866909
2022-08-29T10:19:03.664Z,50.866966
2022-08-29T10:20:03.673Z,50.866890
2022-08-29T10:21:03.656Z,50.866825
2022-08-29T10:22:03.640Z,50.866840
2022-08-29T10:23:03.627Z,50.866951
2022-08-29T10:24:03.653Z,50.866943
2022-08-29T10:25:03.613Z,50.866894
2022-08-29T10:26:03.602Z,50.866901
2022-08-29T10:27:03.611Z,50.866837
2022-08-29T10:28:03.597Z,50.866882
2022-08-29T10:29:03.593Z,50.866920
2022-08-29T10:30:03.593Z,50.866905
2022-08-29T10:31:03.561Z,50.866875
2022-08-29T10:32:03.590Z,50.866829
2022-08-29T10:33:03.549Z,50.866798
2022-08-29T10:34:03.539Z,50.866730
2022-08-29T10:35:03.538Z,50.866837
2022-08-29T10:36:03.545Z,50.866859
2022-08-29T10:37:03.515Z,50.866848
2022-08-29T10:38:03.531Z,50.866947
2022-08-29T10:39:03.504Z,50.866955
2022-08-29T10:40:03.567Z,50.866882
2022-08-29T10:41:03.483Z,50.866825
2022-08-29T10:42:06.087Z,50.866783
2022-08-29T10:43:03.483Z,50.866821
2022-08-29T10:44:03.545Z,50.866840
2022-08-29T10:45:03.462Z,50.866817
2022-08-29T10:46:03.516Z,50.866814
2022-08-29T10:47:03.444Z,50.866810
2022-08-29T10:48:03.428Z,50.866821
2022-08-29T10:49:03.422Z,50.866821
2022-08-29T10:50:03.447Z,50.866795
2022-08-29T10:51:03.409Z,50.866817
2022-08-29T10:52:03.440Z,50.866825
2022-08-29T10:53:03.400Z,50.866772
2022-08-29T10:54:05.967Z,50.866791
2022-08-29T10:55:03.397Z,50.866802
2022-08-29T10:56:06.853Z,50.866840
2022-08-29T10:57:04.364Z,50.866863
2022-08-29T10:58:05.042Z,50.866833
2022-08-29T10:59:03.344Z,50.866802
2022-08-29T11:00:03.347Z,50.866768
2022-08-29T11:01:08.450Z,50.866787
2022-08-29T11:02:05.329Z,50.866768
2022-08-29T11:03:03.330Z,50.866795
2022-08-29T11:04:03.968Z,50.866840
2022-08-29T11:05:03.297Z,50.866833
2022-08-29T11:06:03.293Z,50.866825
2022-08-29T11:07:03.277Z,50.866833
2022-08-29T11:08:03.267Z,50.866806
2022-08-29T11:09:03.267Z,50.866779
2022-08-29T11:10:03.345Z,50.866817
2022-08-29T11:11:03.245Z,50.866791
2022-08-29T11:12:03.235Z,50.866718
2022-08-29T11:13:03.224Z,50.866776
2022-08-29T11:14:05.747Z,50.866791
2022-08-29T11:15:04.255Z,50.866882
2022-08-29T11:16:03.270Z,50.866863
2022-08-29T11:17:03.504Z,50.866802
2022-08-29T11:18:03.193Z,50.866814
2022-08-29T11:19:03.184Z,50.866760
2022-08-29T11:20:03.186Z,50.866840
2022-08-29T11:21:03.174Z,50.866756
2022-08-29T11:22:03.188Z,50.866776
2022-08-29T11:23:03.157Z,50.866959
2022-08-29T11:24:04.050Z,50.866936
2022-08-29T11:25:04.981Z,50.866848
2022-08-29T11:26:03.138Z,50.866901
2022-08-29T11:27:03.120Z,50.866821
2022-08-29T11:28:03.121Z,50.866898
2022-08-29T11:29:03.114Z,50.866959
2022-08-29T11:30:03.179Z,50.866894
2022-08-29T11:31:03.160Z,50.866795
2022-08-29T11:32:03.103Z,50.866894
2022-08-29T11:33:03.077Z,50.866844
2022-08-29T11:34:03.125Z,50.866905
2022-08-29T11:35:03.069Z,50.866879
2022-08-29T11:36:05.041Z,50.866810
2022-08-29T11:37:04.055Z,50.866985
2022-08-29T11:38:03.038Z,50.866886
2022-08-29T11:39:03.034Z,50.866810
2022-08-29T11:40:03.060Z,50.866879
2022-08-29T11:42:05.028Z,50.867191
2022-08-29T11:43:03.002Z,50.867104
2022-08-29T11:44:04.003Z,50.867153
2022-08-29T11:45:02.993Z,50.866920
2022-08-29T11:46:02.976Z,50.866940
2022-08-29T11:47:03.062Z,50.866959
2022-08-29T11:48:02.960Z,50.867134
2022-08-29T11:49:02.994Z,50.867123
2022-08-29T11:50:02.991Z,50.867092
2022-08-29T11:51:02.936Z,50.866920
2022-08-29T11:52:02.934Z,50.866970
2022-08-29T11:53:02.918Z,50.867016
2022-08-29T11:54:02.918Z,50.866886
2022-08-29T11:55:03.516Z,50.866852
2022-08-29T11:56:02.911Z,50.867058
2022-08-29T11:57:02.892Z,50.867382
2022-08-29T11:58:05.728Z,50.867157
2022-08-29T11:59:03.900Z,50.867157
2022-08-29T12:00:02.910Z,50.867027
2022-08-29T12:01:02.854Z,50.866688
2022-08-29T12:02:02.938Z,50.866627
2022-08-29T12:03:07.284Z,50.866558
2022-08-29T12:04:03.851Z,50.866581
2022-08-29T12:05:02.861Z,50.866547
2022-08-29T12:06:02.818Z,50.866486
2022-08-29T12:07:02.809Z,50.866562
2022-08-29T12:08:26.332Z,50.866638
2022-08-29T12:09:07.136Z,50.866585
2022-08-29T12:10:03.802Z,50.866589